首页
METAR-TAF:

METAR-TAF

机场 :

怡保国际机场

怡保, 马来西亚

纬度: 04-34-09N, 经度: 101-05-35E, 海拔: 40米

当前天气观测

该预报发布于50分钟前的08:00 UTC
风速2节,风向多变
温度 32°C
湿度 63%
气压 1009 hPa
能见度10公里或以上
少量云层高于1700英尺, 积雨云.
散云层高于2000英尺
多云层高于28000英尺
雷暴

METAR: WMKI 170800Z VRB02KT 9999 TS FEW017CB SCT020 BKN280 32/24 Q1009

时间: 16:50 (08:50 UTC)

预报

该预报发布于3小时和50分钟前的05:00 UTC
预报有效从17日的 06点(UTC)到 18日的 06点(UTC)
风速5节,风向东北
能见度10公里或以上
少量云层高于2000英尺
成为
从 17日的 06点(UTC)到 17日的 08点(UTC)
风速10节,风向西转西南

TAF: WMKI 170500Z 1706/1806 04005KT 9999 FEW020 BECMG 1706/1708 25010KT

超过4000个机场的气象观测和天气预报(METAR&TAF报告)。

可查询的气象台以黄色和红色小点在地图上表示。

将鼠标移到小点上方,可查看气象台名称。

然后点击查看天气观测和预报。

如需切换地图:点击带黑十字的绿色按钮放大地图;点击带横线的绿色按钮缩小地图;或者点击绿色箭头查看邻近地区的地图。


METAR-TAF: